METAR (acronimo di METeorological Air Report) è un messaggio meteo emesso nella maggior parte dei casi in ambito aeroportuale

LIPF - Ferrara, It
Distanza dalla Stazione: 8 km
Ultimo Aggiornamento: Lunedì 20 Maggio 2019 19:55 CEST
Dati non Recenti
Parzialmente Nuvoloso
Parzialmente Nuvoloso
 Wind from Nord-Nord-Ovest
Vento: Nord-Nord-Ovest 2 km/h
Temperatura: 17°C
Punto di Rugiada: 14°C
Umidità: 83%
Barometro: 1006 hPa
Nuvole: Parzialmente Nuvoloso
Visibilità: 10 km
Nuvole nel Dettaglio: Qualche Nuvola 457 m
Parzialmente Nuvoloso 610 m
2019/05/20 17:55 LIPF 201755Z 34001KT 9999 FEW015 SCT020CB 17/14 Q1006
LIPE - Bologna Borgo Panigale, It
Distanza dalla Stazione: 46 km
Ultimo Aggiornamento: Lunedì 20 Maggio 2019 22:20 CEST
Parzialmente Nuvoloso
Parzialmente Nuvoloso
 Wind from Sud-Sud-Ovest
Vento: Sud-Sud-Ovest 9 km/h
Temperatura: 15°C
Punto di Rugiada: 12°C
Umidità: 82%
Barometro: 1007 hPa
Nuvole: Parzialmente Nuvoloso
Visibilità: 10 km
Nuvole nel Dettaglio: Qualche Nuvola 1219 m
Parzialmente Nuvoloso 2134 m
2019/05/20 20:20 LIPE 202020Z 20005KT 9999 FEW040 SCT070 15/12 Q1007
LIMF - Torino Caselle, It
Distanza dalla Stazione: 320 km
Ultimo Aggiornamento: Lunedì 20 Maggio 2019 22:20 CEST
Sereno
Sereno
 Wind from Nord-Nord-Est
Vento: Nord-Nord-Est 4 km/h
Temperatura: 15°C
Punto di Rugiada: 11°C
Umidità: 77%
Barometro: 1007 hPa
Condizioni: Sereno
Visibilità: superiore a 10 km
2019/05/20 20:20 LIMF 202020Z 03002KT CAVOK 15/11 Q1007
 
LIML - Milano Malpensa, It
Distanza dalla Stazione: 249 km
Ultimo Aggiornamento: Lunedì 20 Maggio 2019 22:20 CEST
Parzialmente Nuvoloso
Parzialmente Nuvoloso
 Wind from Ovest
Vento: Ovest 13 km/h
Temperatura: 15°C
Punto di Rugiada: 11°C
Umidità: 77%
Barometro: 1007 hPa
Nuvole: Parzialmente Nuvoloso
Visibilità: 10 km
Nuvole nel Dettaglio: Parzialmente Nuvoloso 1829 m
2019/05/20 20:20 LIML 202020Z 26007KT 230V290 9999 SCT060 15/11 Q1007 NOSIG
LIME - Bergamo Orio al Serio, It
Distanza dalla Stazione: 181 km
Ultimo Aggiornamento: Lunedì 20 Maggio 2019 22:20 CEST
Prevalentemente Nuvoloso
Prevalentemente Nuvoloso
 Wind from Ovest
Vento: Ovest 9 km/h
Temperatura: 14°C
Punto di Rugiada: 12°C
Umidità: 88%
Barometro: 1007 hPa
Nuvole: Prevalentemente Nuvoloso
Visibilità: 8 km
Nuvole nel Dettaglio: Prevalentemente Nuvoloso 914 m
2019/05/20 20:20 LIME 202020Z 26005KT 8000 BKN030 14/12 Q1007 NOSIG
LIPZ - Venezia Tessera, It
Distanza dalla Stazione: 93 km
Ultimo Aggiornamento: Lunedì 20 Maggio 2019 22:20 CEST
Parzialmente Nuvoloso
Parzialmente Nuvoloso
 Wind from Sud-Sud-Ovest
Vento: Sud-Sud-Ovest 11 km/h
Temperatura: 15°C
Punto di Rugiada: 13°C
Umidità: 88%
Barometro: 1006 hPa
Nuvole: Parzialmente Nuvoloso
Visibilità: 10 km
Nuvole nel Dettaglio: Parzialmente Nuvoloso 1067 m
2019/05/20 20:20 LIPZ 202020Z 20006KT 9999 SCT035 15/13 Q1006 NOSIG
 
LIVT - Trieste, It
Distanza dalla Stazione: 179 km
Ultimo Aggiornamento: Lunedì 20 Maggio 2019 19:55 CEST
Dati non Recenti
Pioggia Leggera, Prevalentemente Nuvoloso
Pioggia Leggera, Prevalentemente Nuvoloso
 Wind from Nord-Est
Vento: Nord-Est 2 km/h
Temperatura: 14°C
Punto di Rugiada: 12°C
Umidità: 88%
Barometro: 1007 hPa
Condizioni: Pioggia Leggera
Nuvole: Prevalentemente Nuvoloso
Visibilità: 10 km
Nuvole nel Dettaglio: Qualche Nuvola 305 m
Prevalentemente Nuvoloso 457 m
2019/05/20 17:55 LIVT 201755Z 05001KT 9999 -RA FEW010 BKN015 14/12 Q1007
LIMJ - Genova, It
Distanza dalla Stazione: 229 km
Ultimo Aggiornamento: Lunedì 20 Maggio 2019 22:20 CEST
Prevalentemente Nuvoloso
Prevalentemente Nuvoloso
 Wind from Est-Sud-Est
Vento: Est-Sud-Est 11 km/h
Temperatura: 15°C
Punto di Rugiada: 11°C
Umidità: 77%
Barometro: 1009 hPa
Nuvole: Prevalentemente Nuvoloso
Visibilità: 10 km
Nuvole nel Dettaglio: Parzialmente Nuvoloso 610 m
Prevalentemente Nuvoloso 975 m
2019/05/20 20:20 LIMJ 202020Z 11006KT 9999 SCT020 BKN032 15/11 Q1009
LIRQ - Firenze Amerigo Vespucci, It
Distanza dalla Stazione: 119 km
Ultimo Aggiornamento: Lunedì 20 Maggio 2019 22:20 CEST
Prevalentemente Nuvoloso
Prevalentemente Nuvoloso
 Wind from varies
Vento: variabile 4 km/h
Temperatura: 14°C
Punto di Rugiada: 13°C
Umidità: 94%
Barometro: 1009 hPa
Nuvole: Prevalentemente Nuvoloso
Visibilità: 10 km
Nuvole nel Dettaglio: Qualche Nuvola 914 m
Prevalentemente Nuvoloso 1524 m
2019/05/20 20:20 LIRQ 202020Z VRB02KT 9999 FEW030 BKN050 14/13 Q1009
 
LIPY - Ancona, It
Distanza dalla Stazione: 189 km
Ultimo Aggiornamento: Lunedì 20 Maggio 2019 21:50 CEST
Sereno
Sereno
 Wind from Sud
Vento: Sud 6 km/h
Temperatura: 15°C
Punto di Rugiada: 10°C
Umidità: 72%
Barometro: 1008 hPa
Condizioni: Sereno
Visibilità: superiore a 10 km
2019/05/20 19:50 LIPY 201950Z 17003KT 140V220 CAVOK 15/10 Q1008
LIBP - Pescara, It
Distanza dalla Stazione: 333 km
Ultimo Aggiornamento: Lunedì 20 Maggio 2019 21:50 CEST
Sereno
Sereno
 Wind from Sud-Ovest
Vento: Sud-Ovest 17 km/h
Temperatura: 16°C
Punto di Rugiada: 7°C
Umidità: 55%
Barometro: 1009 hPa
Condizioni: Sereno
Visibilità: superiore a 10 km
2019/05/20 19:50 LIBP 201950Z 22009KT CAVOK 16/07 Q1009
LIRF - Roma-Fiumicino, It
Distanza dalla Stazione: 334 km
Ultimo Aggiornamento: Lunedì 20 Maggio 2019 22:20 CEST
Pioggia Leggera, Prevalentemente Nuvoloso
Pioggia Leggera, Prevalentemente Nuvoloso
 Wind from Sud
Vento: Sud 13 km/h
Temperatura: 13°C
Punto di Rugiada: 12°C
Umidità: 94%
Barometro: 1011 hPa
Condizioni: Pioggia Leggera
Nuvole: Prevalentemente Nuvoloso
Visibilità: 10 km
Nuvole nel Dettaglio: Qualche Nuvola 762 m
Prevalentemente Nuvoloso 1067 m
2019/05/20 20:20 LIRF 202020Z 17007KT 140V200 9999 -RA FEW025 BKN035 13/12 Q1011 RERA NOSIG
 
LIRN - Napoli Capodichino, It
Distanza dalla Stazione: 494 km
Ultimo Aggiornamento: Lunedì 20 Maggio 2019 22:20 CEST
Prevalentemente Nuvoloso
Prevalentemente Nuvoloso
 Wind from Sud-Sud-Ovest
Vento: Sud-Sud-Ovest 15 km/h
Temperatura: 15°C
Punto di Rugiada: 11°C
Umidità: 77%
Barometro: 1013 hPa
Nuvole: Prevalentemente Nuvoloso
Visibilità: 10 km
Nuvole nel Dettaglio: Parzialmente Nuvoloso 610 m
Prevalentemente Nuvoloso 1524 m
2019/05/20 20:20 LIRN 202020Z 21008KT 180V240 9999 SCT020 BKN050 15/11 Q1013 NOSIG
LIBD - Bari Palese, It
Distanza dalla Stazione: 594 km
Ultimo Aggiornamento: Lunedì 20 Maggio 2019 22:20 CEST
Sereno
Sereno
 Wind from Sud-Ovest
Vento: Sud-Ovest 9 km/h
Temperatura: 12°C
Punto di Rugiada: 11°C
Umidità: 94%
Barometro: 1012 hPa
Condizioni: Sereno
Visibilità: superiore a 10 km
2019/05/20 20:20 LIBD 202020Z 22005KT CAVOK 12/11 Q1012 R07/110095
LIBG - Taranto Grottaglie, It
Distanza dalla Stazione: 670 km
Ultimo Aggiornamento: Lunedì 20 Maggio 2019 19:50 CEST
Dati non Recenti
Qualche Nuvola
Qualche Nuvola
 Wind from Est-Sud-Est
Vento: Est-Sud-Est 13 km/h
Temperatura: 16°C
Punto di Rugiada: 13°C
Umidità: 83%
Barometro: 1011 hPa
Nuvole: Qualche Nuvola
Visibilità: 10 km
Nuvole nel Dettaglio: Qualche Nuvola 1219 m
2019/05/20 17:50 LIBG 201750Z 11007KT 9999 FEW040 16/13 Q1011
 
LICR - Reggio Calabria, It
Distanza dalla Stazione: 819 km
Ultimo Aggiornamento: Lunedì 20 Maggio 2019 21:50 CEST
Sereno
Sereno
 Wind from Nord
Vento: Nord 19 km/h
Temperatura: 17°C
Punto di Rugiada: 9°C
Umidità: 59%
Barometro: 1014 hPa
Condizioni: Sereno
Visibilità: superiore a 10 km
2019/05/20 19:50 LICR 201950Z 36010KT CAVOK 17/09 Q1014
LICJ - Palermo Punta Raisi, It
Distanza dalla Stazione: 762 km
Ultimo Aggiornamento: Lunedì 20 Maggio 2019 22:20 CEST
Sereno
Sereno
 Wind from Sud-Ovest
Vento: Sud-Ovest 13 km/h
Temperatura: 16°C
Punto di Rugiada: 11°C
Umidità: 72%
Barometro: 1015 hPa
Condizioni: Sereno
Visibilità: superiore a 10 km
2019/05/20 20:20 LICJ 202020Z 23007KT CAVOK 16/11 Q1015
LICC - Catania Fontanarossa, It
Distanza dalla Stazione: 866 km
Ultimo Aggiornamento: Lunedì 20 Maggio 2019 22:20 CEST
Sereno
Sereno
 Wind from Sud
Vento: Sud 4 km/h
Temperatura: 15°C
Punto di Rugiada: 13°C
Umidità: 88%
Barometro: 1014 hPa
Condizioni: Sereno
Visibilità: superiore a 10 km
2019/05/20 20:20 LICC 202020Z 17002KT CAVOK 15/13 Q1014
 
LIEE - Cagliari Elmas, It
Distanza dalla Stazione: 655 km
Ultimo Aggiornamento: Lunedì 20 Maggio 2019 22:20 CEST
Sereno
Sereno
 Wind from Nord-Ovest
Vento: Nord-Ovest 9 km/h
Temperatura: 15°C
Punto di Rugiada: 10°C
Umidità: 72%
Barometro: 1015 hPa
Condizioni: Sereno
Visibilità: superiore a 10 km
2019/05/20 20:20 LIEE 202020Z 32005KT CAVOK 15/10 Q1015
LIEO - Olbia, It
Distanza dalla Stazione: 463 km
Ultimo Aggiornamento: Lunedì 20 Maggio 2019 22:20 CEST
Qualche Nuvola
Qualche Nuvola
 Wind from Ovest-Sud-Ovest
Vento: Ovest-Sud-Ovest 26 km/h
Temperatura: 15°C
Punto di Rugiada: 11°C
Umidità: 77%
Barometro: 1012 hPa
Nuvole: Qualche Nuvola
Visibilità: 10 km
Nuvole nel Dettaglio: Qualche Nuvola 1372 m
2019/05/20 20:20 LIEO 202020Z 24014KT 9999 FEW045 15/11 Q1012
LICG - Pantelleria, It
Distanza dalla Stazione: 893 km
Ultimo Aggiornamento: Lunedì 20 Maggio 2019 19:50 CEST
Dati non Recenti
Sereno
Sereno
 Wind from Ovest-Nord-Ovest
Vento: Ovest-Nord-Ovest 9 km/h
Temperatura: 16°C
Punto di Rugiada: 12°C
Umidità: 77%
Barometro: 1016 hPa
Condizioni: Sereno
Visibilità: superiore a 10 km
2019/05/20 17:50 LICG 201750Z 30005KT 270V340 CAVOK 16/12 Q1016